sensor_id;sensor_type;location;lat;lon;timestamp;P1;durP1;ratioP1;P2;durP2;ratioP2
40931;SDS011;36257;46.052;12.540;2023-05-02T15:20:42;1.70;;;0.70;;
40931;SDS011;36257;46.052;12.540;2023-05-02T15:23:08;0.60;;;0.60;;
40931;SDS011;36257;46.052;12.540;2023-05-02T15:25:34;0.70;;;0.70;;
40931;SDS011;36257;46.052;12.540;2023-05-02T15:27:59;1.40;;;0.73;;
40931;SDS011;36257;46.052;12.540;2023-05-02T15:30:27;0.63;;;0.63;;
40931;SDS011;36257;46.052;12.540;2023-05-02T15:32:52;0.40;;;0.40;;
40931;SDS011;36257;46.052;12.540;2023-05-02T15:35:18;0.47;;;0.47;;
40931;SDS011;36257;46.052;12.540;2023-05-02T15:37:44;0.50;;;0.43;;
40931;SDS011;36257;46.052;12.540;2023-05-02T15:40:10;0.40;;;0.40;;
40931;SDS011;36257;46.052;12.540;2023-05-02T15:42:36;0.30;;;0.30;;
40931;SDS011;36257;46.052;12.540;2023-05-02T15:45:02;0.47;;;0.47;;
40931;SDS011;36257;46.052;12.540;2023-05-02T15:47:28;0.47;;;0.43;;
40931;SDS011;36257;46.052;12.540;2023-05-02T15:49:53;0.45;;;0.45;;
40931;SDS011;36257;46.052;12.540;2023-05-02T15:52:19;0.60;;;0.45;;
40931;SDS011;36257;46.052;12.540;2023-05-02T15:54:48;0.52;;;0.52;;
40931;SDS011;36257;46.052;12.540;2023-05-02T15:57:16;0.75;;;0.75;;
40931;SDS011;36257;46.052;12.540;2023-05-02T15:59:42;0.50;;;0.50;;
40931;SDS011;36257;46.052;12.540;2023-05-02T16:02:08;1.13;;;0.50;;
40931;SDS011;36257;46.052;12.540;2023-05-02T16:04:33;0.60;;;0.60;;
40931;SDS011;36257;46.052;12.540;2023-05-02T16:07:02;0.60;;;0.60;;
40931;SDS011;36257;46.052;12.540;2023-05-02T16:09:28;0.60;;;0.60;;
40931;SDS011;36257;46.052;12.540;2023-05-02T16:11:55;3.72;;;2.67;;
40931;SDS011;36257;46.052;12.540;2023-05-02T16:14:21;4.25;;;3.28;;
40931;SDS011;36257;46.052;12.540;2023-05-02T16:16:47;1.73;;;1.48;;
40931;SDS011;36257;46.052;12.540;2023-05-02T16:19:14;1.95;;;1.77;;
40931;SDS011;36257;46.052;12.540;2023-05-02T16:21:41;1.65;;;1.00;;
40931;SDS011;36257;46.052;12.540;2023-05-02T16:24:07;4.45;;;3.08;;
40931;SDS011;36257;46.052;12.540;2023-05-02T16:26:33;4.88;;;3.58;;
40931;SDS011;36257;46.052;12.540;2023-05-02T16:28:59;2.53;;;2.33;;
40931;SDS011;36257;46.052;12.540;2023-05-02T16:31:46;3.28;;;1.60;;
40931;SDS011;36257;46.052;12.540;2023-05-02T16:34:14;1.48;;;1.38;;
40931;SDS011;36257;46.052;12.540;2023-05-02T16:36:40;1.00;;;1.00;;
40931;SDS011;36257;46.052;12.540;2023-05-02T16:39:06;3.65;;;0.80;;
40931;SDS011;36257;46.052;12.540;2023-05-02T16:41:33;0.70;;;0.70;;
40931;SDS011;36257;46.052;12.540;2023-05-02T16:44:00;3.45;;;3.17;;
40931;SDS011;36257;46.052;12.540;2023-05-02T16:46:25;9.93;;;9.07;;
40931;SDS011;36257;46.052;12.540;2023-05-02T16:48:51;5.20;;;4.80;;
40931;SDS011;36257;46.052;12.540;2023-05-02T16:51:17;4.90;;;3.95;;
40931;SDS011;36257;46.052;12.540;2023-05-02T16:53:42;17.88;;;10.43;;
40931;SDS011;36257;46.052;12.540;2023-05-02T16:56:10;16.55;;;10.57;;
40931;SDS011;36257;46.052;12.540;2023-05-02T16:58:35;23.00;;;14.00;;
40931;SDS011;36257;46.052;12.540;2023-05-02T17:01:01;4.80;;;3.55;;
40931;SDS011;36257;46.052;12.540;2023-05-02T17:03:26;7.03;;;4.88;;
40931;SDS011;36257;46.052;12.540;2023-05-02T17:05:53;3.40;;;3.10;;
40931;SDS011;36257;46.052;12.540;2023-05-02T17:08:21;4.55;;;3.15;;
40931;SDS011;36257;46.052;12.540;2023-05-02T17:10:47;1.90;;;1.30;;
40931;SDS011;36257;46.052;12.540;2023-05-02T17:13:14;1.17;;;1.17;;
40931;SDS011;36257;46.052;12.540;2023-05-02T17:15:40;1.23;;;0.90;;
40931;SDS011;36257;46.052;12.540;2023-05-02T17:18:05;0.70;;;0.70;;
40931;SDS011;36257;46.052;12.540;2023-05-02T17:20:31;2.05;;;0.60;;
40931;SDS011;36257;46.052;12.540;2023-05-02T17:22:57;1.52;;;1.50;;
40931;SDS011;36257;46.052;12.540;2023-05-02T17:25:24;2.83;;;0.90;;
40931;SDS011;36257;46.052;12.540;2023-05-02T17:27:50;0.80;;;0.80;;
40931;SDS011;36257;46.052;12.540;2023-05-02T17:30:16;1.20;;;1.20;;
40931;SDS011;36257;46.052;12.540;2023-05-02T17:32:41;4.10;;;1.45;;
40931;SDS011;36257;46.052;12.540;2023-05-02T17:35:07;5.13;;;2.40;;
40931;SDS011;36257;46.052;12.540;2023-05-02T17:37:33;5.50;;;2.70;;
40931;SDS011;36257;46.052;12.540;2023-05-02T17:40:02;6.30;;;2.83;;
40931;SDS011;36257;46.052;12.540;2023-05-02T17:44:55;2.70;;;1.38;;
40931;SDS011;36257;46.052;12.540;2023-05-02T17:47:20;1.20;;;1.10;;
40931;SDS011;36257;46.052;12.540;2023-05-02T17:49:46;1.63;;;1.52;;
40931;SDS011;36257;46.052;12.540;2023-05-02T17:52:15;1.85;;;1.70;;
40931;SDS011;36257;46.052;12.540;2023-05-02T17:54:41;1.70;;;1.60;;
40931;SDS011;36257;46.052;12.540;2023-05-02T17:57:07;1.20;;;1.20;;
40931;SDS011;36257;46.052;12.540;2023-05-02T17:59:36;1.05;;;0.85;;
40931;SDS011;36257;46.052;12.540;2023-05-02T18:02:03;1.50;;;1.40;;
40931;SDS011;36257;46.052;12.540;2023-05-02T18:04:29;2.33;;;2.13;;
40931;SDS011;36257;46.052;12.540;2023-05-02T18:06:55;3.42;;;3.13;;
40931;SDS011;36257;46.052;12.540;2023-05-02T18:09:21;3.17;;;1.77;;
40931;SDS011;36257;46.052;12.540;2023-05-02T18:11:46;1.70;;;1.60;;
40931;SDS011;36257;46.052;12.540;2023-05-02T18:14:12;2.60;;;2.00;;
40931;SDS011;36257;46.052;12.540;2023-05-02T18:16:38;4.60;;;3.13;;
40931;SDS011;36257;46.052;12.540;2023-05-02T18:19:05;2.83;;;1.73;;
40931;SDS011;36257;46.052;12.540;2023-05-02T18:21:32;2.33;;;2.10;;
40931;SDS011;36257;46.052;12.540;2023-05-02T18:23:59;5.30;;;1.90;;
40931;SDS011;36257;46.052;12.540;2023-05-02T18:26:24;3.17;;;1.70;;
40931;SDS011;36257;46.052;12.540;2023-05-02T18:28:50;1.58;;;1.48;;
40931;SDS011;36257;46.052;12.540;2023-05-02T18:31:17;2.13;;;1.88;;
40931;SDS011;36257;46.052;12.540;2023-05-02T18:33:46;2.72;;;2.50;;
40931;SDS011;36257;46.052;12.540;2023-05-02T18:36:12;8.95;;;6.70;;
40931;SDS011;36257;46.052;12.540;2023-05-02T18:38:38;4.05;;;3.58;;
40931;SDS011;36257;46.052;12.540;2023-05-02T18:43:32;7.47;;;5.88;;
40931;SDS011;36257;46.052;12.540;2023-05-02T18:45:58;12.23;;;7.72;;
40931;SDS011;36257;46.052;12.540;2023-05-02T18:48:24;12.45;;;6.25;;
40931;SDS011;36257;46.052;12.540;2023-05-02T18:50:53;3.90;;;3.50;;
40931;SDS011;36257;46.052;12.540;2023-05-02T18:53:20;2.42;;;2.08;;
40931;SDS011;36257;46.052;12.540;2023-05-02T18:55:48;1.30;;;1.20;;
40931;SDS011;36257;46.052;12.540;2023-05-02T18:58:14;2.88;;;1.60;;
40931;SDS011;36257;46.052;12.540;2023-05-02T19:00:40;1.13;;;1.13;;
40931;SDS011;36257;46.052;12.540;2023-05-02T19:03:08;1.80;;;1.70;;
40931;SDS011;36257;46.052;12.540;2023-05-02T19:05:34;2.25;;;2.03;;
40931;SDS011;36257;46.052;12.540;2023-05-02T19:08:00;1.63;;;1.50;;
40931;SDS011;36257;46.052;12.540;2023-05-02T19:10:26;1.50;;;1.40;;
40931;SDS011;36257;46.052;12.540;2023-05-02T19:12:51;2.20;;;1.55;;
40931;SDS011;36257;46.052;12.540;2023-05-02T19:15:17;19.98;;;12.90;;
40931;SDS011;36257;46.052;12.540;2023-05-02T19:17:42;17.23;;;12.13;;
40931;SDS011;36257;46.052;12.540;2023-05-02T19:20:09;4.68;;;3.15;;
40931;SDS011;36257;46.052;12.540;2023-05-02T19:22:35;2.80;;;2.15;;
40931;SDS011;36257;46.052;12.540;2023-05-02T19:25:01;2.35;;;2.20;;
40931;SDS011;36257;46.052;12.540;2023-05-02T19:27:27;3.08;;;2.78;;
40931;SDS011;36257;46.052;12.540;2023-05-02T19:29:53;3.53;;;3.22;;
40931;SDS011;36257;46.052;12.540;2023-05-02T19:32:19;2.50;;;2.33;;
40931;SDS011;36257;46.052;12.540;2023-05-02T19:34:47;1.80;;;1.70;;
40931;SDS011;36257;46.052;12.540;2023-05-02T19:37:14;1.73;;;1.60;;
40931;SDS011;36257;46.052;12.540;2023-05-02T19:39:39;2.38;;;2.20;;
40931;SDS011;36257;46.052;12.540;2023-05-02T19:42:05;3.50;;;3.20;;
40931;SDS011;36257;46.052;12.540;2023-05-02T19:44:31;3.03;;;2.72;;
40931;SDS011;36257;46.052;12.540;2023-05-02T19:46:56;2.30;;;2.20;;
40931;SDS011;36257;46.052;12.540;2023-05-02T19:49:22;3.97;;;2.60;;
40931;SDS011;36257;46.052;12.540;2023-05-02T19:51:48;2.72;;;2.35;;
40931;SDS011;36257;46.052;12.540;2023-05-02T19:54:13;2.80;;;2.60;;
40931;SDS011;36257;46.052;12.540;2023-05-02T19:56:39;4.05;;;2.78;;
40931;SDS011;36257;46.052;12.540;2023-05-02T19:59:07;3.22;;;2.55;;
40931;SDS011;36257;46.052;12.540;2023-05-02T20:01:32;3.30;;;3.05;;
40931;SDS011;36257;46.052;12.540;2023-05-02T20:03:58;3.17;;;2.97;;
40931;SDS011;36257;46.052;12.540;2023-05-02T20:06:24;3.15;;;2.85;;
40931;SDS011;36257;46.052;12.540;2023-05-02T20:08:50;4.30;;;2.97;;
40931;SDS011;36257;46.052;12.540;2023-05-02T20:11:16;4.05;;;2.80;;
40931;SDS011;36257;46.052;12.540;2023-05-02T20:13:43;2.97;;;2.17;;
40931;SDS011;36257;46.052;12.540;2023-05-02T20:16:11;2.42;;;2.22;;
40931;SDS011;36257;46.052;12.540;2023-05-02T20:21:02;2.22;;;1.95;;
40931;SDS011;36257;46.052;12.540;2023-05-02T20:23:28;2.35;;;2.25;;
40931;SDS011;36257;46.052;12.540;2023-05-02T20:25:54;6.15;;;4.50;;
40931;SDS011;36257;46.052;12.540;2023-05-02T20:28:19;1.45;;;1.35;;
40931;SDS011;36257;46.052;12.540;2023-05-02T20:30:45;3.30;;;1.58;;
40931;SDS011;36257;46.052;12.540;2023-05-02T20:33:11;1.40;;;1.30;;
40931;SDS011;36257;46.052;12.540;2023-05-02T20:35:36;1.63;;;1.52;;
40931;SDS011;36257;46.052;12.540;2023-05-02T20:38:02;3.63;;;3.05;;
40931;SDS011;36257;46.052;12.540;2023-05-02T20:40:29;4.32;;;3.92;;
40931;SDS011;36257;46.052;12.540;2023-05-02T20:42:55;3.53;;;2.43;;
40931;SDS011;36257;46.052;12.540;2023-05-02T20:45:25;2.60;;;1.83;;
40931;SDS011;36257;46.052;12.540;2023-05-02T20:47:54;1.98;;;1.88;;
40931;SDS011;36257;46.052;12.540;2023-05-02T20:50:19;1.23;;;1.13;;
40931;SDS011;36257;46.052;12.540;2023-05-02T20:52:45;1.20;;;1.20;;
40931;SDS011;36257;46.052;12.540;2023-05-02T20:55:11;1.38;;;1.30;;
40931;SDS011;36257;46.052;12.540;2023-05-02T20:57:36;1.52;;;1.42;;
40931;SDS011;36257;46.052;12.540;2023-05-02T21:00:02;2.40;;;1.90;;
40931;SDS011;36257;46.052;12.540;2023-05-02T21:02:28;2.42;;;1.67;;
40931;SDS011;36257;46.052;12.540;2023-05-02T21:04:54;2.00;;;1.90;;
40931;SDS011;36257;46.052;12.540;2023-05-02T21:07:20;2.50;;;2.30;;
40931;SDS011;36257;46.052;12.540;2023-05-02T21:09:46;1.85;;;1.42;;
40931;SDS011;36257;46.052;12.540;2023-05-02T21:12:12;7.47;;;5.97;;
40931;SDS011;36257;46.052;12.540;2023-05-02T21:14:37;8.48;;;5.15;;
40931;SDS011;36257;46.052;12.540;2023-05-02T21:17:03;7.57;;;4.10;;
40931;SDS011;36257;46.052;12.540;2023-05-02T21:19:29;10.40;;;4.55;;
40931;SDS011;36257;46.052;12.540;2023-05-02T21:21:57;19.60;;;7.70;;
40931;SDS011;36257;46.052;12.540;2023-05-02T21:24:23;24.10;;;8.27;;
40931;SDS011;36257;46.052;12.540;2023-05-02T21:26:48;8.32;;;4.35;;
40931;SDS011;36257;46.052;12.540;2023-05-02T21:29:14;5.25;;;3.45;;
40931;SDS011;36257;46.052;12.540;2023-05-02T21:31:40;2.92;;;2.40;;
40931;SDS011;36257;46.052;12.540;2023-05-02T21:34:05;2.22;;;2.03;;
40931;SDS011;36257;46.052;12.540;2023-05-02T21:36:31;3.95;;;1.77;;
40931;SDS011;36257;46.052;12.540;2023-05-02T21:38:58;2.03;;;1.93;;
40931;SDS011;36257;46.052;12.540;2023-05-02T21:41:23;1.75;;;1.38;;
40931;SDS011;36257;46.052;12.540;2023-05-02T21:43:49;1.48;;;1.38;;
40931;SDS011;36257;46.052;12.540;2023-05-02T21:46:15;2.38;;;2.08;;
40931;SDS011;36257;46.052;12.540;2023-05-02T21:48:41;2.17;;;1.88;;
40931;SDS011;36257;46.052;12.540;2023-05-02T21:51:07;3.03;;;1.83;;
40931;SDS011;36257;46.052;12.540;2023-05-02T21:53:33;2.05;;;1.85;;
40931;SDS011;36257;46.052;12.540;2023-05-02T21:55:59;5.72;;;1.60;;
40931;SDS011;36257;46.052;12.540;2023-05-02T21:58:25;1.50;;;1.40;;
40931;SDS011;36257;46.052;12.540;2023-05-02T22:00:52;1.65;;;1.20;;
40931;SDS011;36257;46.052;12.540;2023-05-02T22:03:18;1.98;;;1.25;;
40931;SDS011;36257;46.052;12.540;2023-05-02T22:05:43;4.03;;;1.30;;
40931;SDS011;36257;46.052;12.540;2023-05-02T22:08:12;3.67;;;1.00;;
40931;SDS011;36257;46.052;12.540;2023-05-02T22:10:39;1.05;;;1.05;;
40931;SDS011;36257;46.052;12.540;2023-05-02T22:13:06;0.98;;;0.90;;
40931;SDS011;36257;46.052;12.540;2023-05-02T22:15:36;2.10;;;1.13;;
40931;SDS011;36257;46.052;12.540;2023-05-02T22:18:05;1.50;;;1.35;;
40931;SDS011;36257;46.052;12.540;2023-05-02T22:20:32;5.00;;;1.52;;
40931;SDS011;36257;46.052;12.540;2023-05-02T22:22:58;1.65;;;1.23;;
40931;SDS011;36257;46.052;12.540;2023-05-02T22:25:23;1.88;;;1.45;;
40931;SDS011;36257;46.052;12.540;2023-05-02T22:27:49;2.85;;;1.60;;
40931;SDS011;36257;46.052;12.540;2023-05-02T22:30:15;3.40;;;2.42;;
40931;SDS011;36257;46.052;12.540;2023-05-02T22:32:40;3.45;;;2.13;;
40931;SDS011;36257;46.052;12.540;2023-05-02T22:35:06;1.80;;;1.67;;
40931;SDS011;36257;46.052;12.540;2023-05-02T22:37:32;2.75;;;1.90;;
40931;SDS011;36257;46.052;12.540;2023-05-02T22:39:58;3.08;;;1.75;;
40931;SDS011;36257;46.052;12.540;2023-05-02T22:42:24;4.60;;;1.70;;
40931;SDS011;36257;46.052;12.540;2023-05-02T22:44:49;1.90;;;1.80;;
40931;SDS011;36257;46.052;12.540;2023-05-02T22:47:15;3.22;;;1.63;;
40931;SDS011;36257;46.052;12.540;2023-05-02T22:49:43;2.30;;;2.00;;
40931;SDS011;36257;46.052;12.540;2023-05-02T22:52:10;4.70;;;3.00;;
40931;SDS011;36257;46.052;12.540;2023-05-02T22:54:38;9.02;;;4.53;;
40931;SDS011;36257;46.052;12.540;2023-05-02T22:57:03;7.55;;;5.00;;
40931;SDS011;36257;46.052;12.540;2023-05-02T22:59:29;7.28;;;4.95;;
40931;SDS011;36257;46.052;12.540;2023-05-02T23:01:57;9.85;;;5.25;;
40931;SDS011;36257;46.052;12.540;2023-05-02T23:04:24;2.83;;;2.63;;
40931;SDS011;36257;46.052;12.540;2023-05-02T23:06:49;1.38;;;1.38;;
40931;SDS011;36257;46.052;12.540;2023-05-02T23:09:15;1.20;;;0.95;;
40931;SDS011;36257;46.052;12.540;2023-05-02T23:11:41;1.23;;;1.13;;
40931;SDS011;36257;46.052;12.540;2023-05-02T23:14:07;1.38;;;1.27;;
40931;SDS011;36257;46.052;12.540;2023-05-02T23:16:32;3.25;;;1.50;;
40931;SDS011;36257;46.052;12.540;2023-05-02T23:18:58;2.00;;;1.90;;
40931;SDS011;36257;46.052;12.540;2023-05-02T23:21:24;2.25;;;1.80;;
40931;SDS011;36257;46.052;12.540;2023-05-02T23:23:50;1.77;;;1.25;;
40931;SDS011;36257;46.052;12.540;2023-05-02T23:26:16;2.17;;;1.45;;
40931;SDS011;36257;46.052;12.540;2023-05-02T23:28:41;1.13;;;1.10;;
40931;SDS011;36257;46.052;12.540;2023-05-02T23:31:07;1.23;;;1.23;;
40931;SDS011;36257;46.052;12.540;2023-05-02T23:33:33;2.55;;;1.20;;
40931;SDS011;36257;46.052;12.540;2023-05-02T23:36:00;1.50;;;1.47;;
40931;SDS011;36257;46.052;12.540;2023-05-02T23:38:26;2.05;;;1.52;;
40931;SDS011;36257;46.052;12.540;2023-05-02T23:40:52;2.58;;;1.52;;
40931;SDS011;36257;46.052;12.540;2023-05-02T23:43:17;2.28;;;1.08;;
40931;SDS011;36257;46.052;12.540;2023-05-02T23:45:44;2.30;;;1.20;;
40931;SDS011;36257;46.052;12.540;2023-05-02T23:48:10;1.23;;;1.23;;
40931;SDS011;36257;46.052;12.540;2023-05-02T23:50:35;0.90;;;0.90;;
40931;SDS011;36257;46.052;12.540;2023-05-02T23:53:02;1.70;;;1.60;;
40931;SDS011;36257;46.052;12.540;2023-05-02T23:55:28;3.80;;;2.40;;
40931;SDS011;36257;46.052;12.540;2023-05-02T23:57:55;2.03;;;1.02;;
